createdAt,value
2019-04-23T00:04:16.626Z,23.90
2019-04-23T00:09:40.969Z,23.70
2019-04-23T00:15:06.686Z,23.70
2019-04-23T00:26:08.735Z,23.50
2019-04-23T00:31:20.942Z,23.50
2019-04-23T00:36:36.402Z,23.40
2019-04-23T00:42:06.919Z,23.30
2019-04-23T00:47:01.299Z,23.20
2019-04-23T01:03:03.556Z,23.00
2019-04-23T01:08:20.127Z,22.90
2019-04-23T01:13:40.738Z,22.80
2019-04-23T01:24:17.736Z,22.70
2019-04-23T01:29:58.562Z,22.60
2019-04-23T01:35:17.794Z,22.50
2019-04-23T01:40:34.839Z,22.40
2019-04-23T01:45:43.459Z,22.00
2019-04-23T01:56:24.185Z,21.00
2019-04-23T02:01:44.653Z,20.60
2019-04-23T02:06:58.620Z,20.30
2019-04-23T02:12:18.176Z,20.00
2019-04-23T02:17:38.761Z,19.70
2019-04-23T02:28:25.350Z,19.30
2019-04-23T02:39:09.510Z,18.90
2019-04-23T02:55:04.502Z,18.60
2019-04-23T03:05:36.450Z,18.30
2019-04-23T03:10:59.749Z,18.10
2019-04-23T03:16:39.549Z,18.00
2019-04-23T03:22:01.512Z,18.00
2019-04-23T03:37:55.968Z,17.70
2019-04-23T03:48:32.419Z,17.60
2019-04-23T03:53:54.394Z,17.60
2019-04-23T03:59:11.085Z,17.50
2019-04-23T04:04:31.174Z,17.50
2019-04-23T04:09:45.687Z,17.40
2019-04-23T04:15:07.782Z,17.30
2019-04-23T04:25:33.602Z,17.20
2019-04-23T04:30:49.468Z,17.20
2019-04-23T04:36:14.110Z,17.10
2019-04-23T04:46:47.768Z,17.00
2019-04-23T04:52:14.104Z,16.90
2019-04-23T04:57:36.731Z,16.90
2019-04-23T05:07:54.443Z,16.80
2019-04-23T05:24:02.876Z,16.70
2019-04-23T05:29:23.314Z,16.70
2019-04-23T05:34:27.317Z,16.60
2019-04-23T05:39:45.419Z,16.60
2019-04-23T05:45:02.141Z,16.60
2019-04-23T05:55:42.698Z,16.60
2019-04-23T06:07:24.948Z,16.60
2019-04-23T06:12:21.406Z,16.60
2019-04-23T06:17:43.115Z,16.60
2019-04-23T06:23:01.052Z,16.60
2019-04-23T06:28:21.217Z,16.60
2019-04-23T06:33:32.231Z,16.60
2019-04-23T06:44:19.237Z,16.70
2019-04-23T06:54:56.499Z,16.70
2019-04-23T07:00:06.581Z,16.70
2019-04-23T07:05:28.027Z,16.70
2019-04-23T07:10:40.356Z,16.70
2019-04-23T07:15:55.188Z,16.80
2019-04-23T07:21:17.919Z,16.80
2019-04-23T07:26:39.048Z,16.90
2019-04-23T07:31:53.816Z,17.00
2019-04-23T07:37:22.878Z,17.10
2019-04-23T07:42:35.363Z,17.10
2019-04-23T07:53:23.079Z,17.30
2019-04-23T07:58:39.353Z,17.30
2019-04-23T08:04:04.702Z,17.40
2019-04-23T08:14:41.893Z,18.30
2019-04-23T08:25:37.231Z,19.30
2019-04-23T08:30:57.216Z,19.80
2019-04-23T08:36:11.709Z,20.30
2019-04-23T08:46:56.971Z,21.10
2019-04-23T08:52:13.487Z,21.40
2019-04-23T08:57:27.269Z,21.70
2019-04-23T09:02:55.222Z,22.00
2019-04-23T09:08:19.123Z,22.20
2019-04-23T09:18:37.233Z,22.60
2019-04-23T09:23:56.249Z,22.80
2019-04-23T09:29:19.782Z,22.90
2019-04-23T09:35:09.284Z,23.00
2019-04-23T09:41:08.465Z,23.10
2019-04-23T09:46:12.308Z,23.20
2019-04-23T09:51:22.339Z,23.40
2019-04-23T09:56:41.583Z,23.40
2019-04-23T10:01:50.140Z,23.50
2019-04-23T10:07:06.810Z,23.60
2019-04-23T10:12:09.454Z,23.60
2019-04-23T10:17:26.233Z,23.70
2019-04-23T10:22:42.189Z,23.70
2019-04-23T10:28:02.825Z,23.80
2019-04-23T10:33:15.837Z,23.90
2019-04-23T10:38:34.618Z,23.90
2019-04-23T10:44:00.766Z,24.00
2019-04-23T10:55:12.118Z,24.10
2019-04-23T11:00:32.274Z,24.10
2019-04-23T11:06:06.770Z,24.20
2019-04-23T11:21:47.966Z,24.30
2019-04-23T11:27:10.352Z,24.40
2019-04-23T11:32:42.841Z,24.50
2019-04-23T11:38:11.882Z,24.60
2019-04-23T11:42:57.942Z,24.60
2019-04-23T11:48:33.246Z,24.70
2019-04-23T11:53:36.033Z,24.70
2019-04-23T11:58:45.796Z,24.80
2019-04-23T12:04:40.770Z,24.90
2019-04-23T12:10:03.092Z,25.00
2019-04-23T12:15:25.335Z,25.00
2019-04-23T12:20:37.603Z,25.10
2019-04-23T12:26:03.140Z,25.20
2019-04-23T12:31:17.374Z,25.30
2019-04-23T12:42:13.618Z,25.50
2019-04-23T12:47:25.452Z,25.60
2019-04-23T13:03:25.748Z,26.00
2019-04-23T13:08:33.242Z,26.10
2019-04-23T13:13:47.861Z,26.20
2019-04-23T13:19:37.313Z,26.30
2019-04-23T13:24:40.791Z,26.40
2019-04-23T13:29:56.813Z,26.40
2019-04-23T13:41:04.651Z,26.70
2019-04-23T13:46:14.170Z,26.80
2019-04-23T13:51:33.918Z,26.90
2019-04-23T13:57:27.174Z,27.10
2019-04-23T14:02:24.916Z,27.20
2019-04-23T14:07:56.525Z,27.40
2019-04-23T14:13:01.944Z,27.50
2019-04-23T14:18:43.662Z,27.70
2019-04-23T14:24:11.998Z,27.80
2019-04-23T14:29:24.811Z,28.00
2019-04-23T14:34:40.991Z,28.20
2019-04-23T14:40:05.769Z,28.20
2019-04-23T14:45:31.252Z,28.30
2019-04-23T14:56:01.207Z,28.50
2019-04-23T15:01:34.829Z,28.60
2019-04-23T15:12:02.166Z,28.80
2019-04-23T15:17:12.779Z,28.80
2019-04-23T15:22:32.884Z,28.90
2019-04-23T15:33:22.342Z,28.90
2019-04-23T15:38:33.943Z,29.00
2019-04-23T15:43:41.061Z,28.90
2019-04-23T15:49:07.257Z,28.90
2019-04-23T15:54:19.540Z,28.90
2019-04-23T15:59:40.848Z,29.00
2019-04-23T16:04:24.156Z,29.00
2019-04-23T16:10:17.817Z,29.00
2019-04-23T16:15:21.949Z,29.00
2019-04-23T16:20:58.427Z,29.10
2019-04-23T16:26:12.463Z,29.10
2019-04-23T16:36:55.780Z,29.10
2019-04-23T16:42:14.927Z,29.10
2019-04-23T16:52:51.822Z,29.20
2019-04-23T16:58:13.527Z,29.10
2019-04-23T17:03:26.245Z,29.10
2019-04-23T17:14:02.674Z,29.10
2019-04-23T17:19:16.561Z,29.00
2019-04-23T17:24:51.756Z,29.00
2019-04-23T17:30:00.197Z,29.00
2019-04-23T17:35:17.517Z,28.90
2019-04-23T17:40:39.493Z,28.90
2019-04-23T17:46:08.883Z,28.90
2019-04-23T17:51:25.355Z,28.80
2019-04-23T18:02:30.419Z,28.70
2019-04-23T18:07:37.805Z,28.70
2019-04-23T18:12:43.897Z,28.60
2019-04-23T18:23:13.605Z,28.50
2019-04-23T18:28:37.271Z,28.50
2019-04-23T18:34:08.595Z,28.40
2019-04-23T18:39:29.470Z,28.30
2019-04-23T18:44:42.074Z,28.30
2019-04-23T18:50:03.830Z,28.20
2019-04-23T18:55:25.469Z,28.10
2019-04-23T19:00:50.052Z,28.10
2019-04-23T19:06:25.788Z,28.00
2019-04-23T19:17:30.410Z,27.90
2019-04-23T19:22:32.703Z,27.80
2019-04-23T19:27:38.916Z,27.70
2019-04-23T19:33:14.300Z,27.70
2019-04-23T19:38:26.779Z,27.60
2019-04-23T19:43:49.288Z,27.50
2019-04-23T19:49:09.878Z,27.50
2019-04-23T19:54:34.024Z,27.40
2019-04-23T19:59:45.110Z,27.30
2019-04-23T20:04:55.145Z,27.20
2019-04-23T20:10:20.058Z,27.10
2019-04-23T20:15:41.376Z,27.10
2019-04-23T20:20:54.247Z,27.00
2019-04-23T20:37:13.660Z,26.80
2019-04-23T20:47:45.454Z,26.60
2019-04-23T20:52:54.765Z,26.50
2019-04-23T20:58:23.140Z,26.40
2019-04-23T21:03:47.350Z,26.40
2019-04-23T21:14:31.869Z,26.20
2019-04-23T21:19:42.121Z,26.20
2019-04-23T21:24:54.249Z,26.10
2019-04-23T21:30:46.446Z,26.00
2019-04-23T21:41:54.796Z,25.80
2019-04-23T21:46:58.797Z,25.70
2019-04-23T21:52:11.546Z,25.60
2019-04-23T22:02:59.456Z,25.50
2019-04-23T22:08:10.746Z,25.40
2019-04-23T22:13:29.154Z,25.30
2019-04-23T22:18:57.228Z,25.20
2019-04-23T22:24:02.407Z,25.20
2019-04-23T22:29:18.382Z,25.10
2019-04-23T22:34:38.927Z,25.00
2019-04-23T22:39:58.005Z,25.00
2019-04-23T22:50:27.892Z,24.70
2019-04-23T22:55:49.835Z,24.70
2019-04-23T23:01:43.111Z,24.60
2019-04-23T23:17:33.433Z,24.30
2019-04-23T23:28:07.949Z,24.20
2019-04-23T23:33:20.292Z,24.10
2019-04-23T23:38:42.178Z,24.00
2019-04-23T23:44:16.741Z,23.90
2019-04-23T23:49:11.399Z,23.80
2019-04-23T23:54:30.919Z,23.70
